createdAt,value
2018-06-18T08:34:08.118Z,5056
2018-06-18T08:35:09.507Z,3600
2018-06-18T08:36:10.904Z,5108
2018-06-18T08:37:12.297Z,4700
2018-06-18T08:38:13.703Z,5284
2018-06-18T08:39:15.089Z,3748
2018-06-18T08:40:17.840Z,6104
2018-06-18T08:41:19.225Z,6312
2018-06-18T08:42:20.612Z,4712
2018-06-18T08:43:22.022Z,4312
2018-06-18T08:44:23.410Z,3732
2018-06-18T08:45:24.804Z,3328
2018-06-18T08:46:26.208Z,3068
2018-06-18T08:47:27.602Z,2868
2018-06-18T08:48:28.996Z,2752
2018-06-18T08:49:30.387Z,2836
2018-06-18T08:50:31.792Z,3252
2018-06-18T08:51:33.188Z,3808
2018-06-18T08:52:34.585Z,4072
2018-06-18T08:53:35.971Z,2700
2018-06-18T08:54:37.363Z,2120
2018-06-18T08:55:38.766Z,1972
2018-06-18T08:56:40.575Z,1724
2018-06-18T08:57:41.975Z,1540
2018-06-18T08:58:43.361Z,1380
2018-06-18T08:59:44.765Z,1248
2018-06-18T09:00:46.173Z,1256
2018-06-18T09:01:47.559Z,1228
2018-06-18T09:02:48.958Z,1424
2018-06-18T09:03:50.370Z,1760
2018-06-18T09:04:51.764Z,1700
2018-06-18T09:05:53.153Z,1620
2018-06-18T09:06:54.546Z,1536
2018-06-18T09:07:55.950Z,1528
2018-06-18T09:08:57.349Z,1548
2018-06-18T09:09:58.752Z,1668
2018-06-18T09:11:00.147Z,1636
2018-06-18T09:12:01.542Z,1576
2018-06-18T09:13:02.942Z,1500
2018-06-18T09:14:04.345Z,1380
2018-06-18T09:15:05.736Z,1488
2018-06-18T09:16:07.164Z,1588
2018-06-18T09:17:08.523Z,1500
2018-06-18T09:18:09.907Z,1460
2018-06-18T09:19:11.320Z,1464
2018-06-18T09:20:12.699Z,1512
2018-06-18T09:21:14.095Z,1524
2018-06-18T09:22:15.491Z,1560
2018-06-18T09:23:16.884Z,1616
2018-06-18T09:24:18.286Z,1672
2018-06-18T09:25:19.683Z,1628
2018-06-18T09:26:21.085Z,1612
2018-06-18T09:27:22.473Z,1756
2018-06-18T09:28:23.871Z,1936
2018-06-18T09:29:25.281Z,1976
2018-06-18T09:30:26.680Z,2072
2018-06-18T09:31:28.070Z,2216
2018-06-18T09:32:29.603Z,2352
2018-06-18T09:33:30.872Z,2776
2018-06-18T09:34:32.254Z,3116
2018-06-18T09:35:33.656Z,2916
2018-06-18T09:36:35.050Z,2756
2018-06-18T09:37:36.451Z,2608
2018-06-18T09:38:37.868Z,2444
2018-06-18T09:39:39.274Z,2444
2018-06-18T09:40:40.674Z,2348
2018-06-18T09:41:42.056Z,2352
2018-06-18T09:42:43.456Z,2240
2018-06-18T09:43:44.858Z,2060
2018-06-18T09:44:46.272Z,2056
2018-06-18T09:45:47.666Z,2512
2018-06-18T09:46:49.066Z,2784
2018-06-18T09:47:50.471Z,2792
2018-06-18T09:48:51.858Z,3436
2018-06-18T09:49:53.257Z,3996
2018-06-18T09:50:54.655Z,4144
2018-06-18T09:51:56.041Z,4756
2018-06-18T09:52:57.450Z,5620
2018-06-18T09:53:58.841Z,5704
2018-06-18T09:55:00.237Z,5972
2018-06-18T09:56:01.632Z,6008
2018-06-18T09:57:03.041Z,4884
2018-06-18T09:58:04.436Z,4112
2018-06-18T09:59:05.823Z,3780
2018-06-18T10:00:07.227Z,3652
2018-06-18T10:01:08.620Z,3520
2018-06-18T10:02:10.012Z,3196
2018-06-18T10:03:11.415Z,2896
2018-06-18T10:04:12.814Z,2576
2018-06-18T10:05:14.228Z,2296
2018-06-18T10:06:15.623Z,2156
2018-06-18T10:07:17.012Z,2124
2018-06-18T10:08:18.519Z,2312
2018-06-18T10:09:19.816Z,2164
2018-06-18T10:10:21.207Z,2436
2018-06-18T10:11:22.594Z,2228
2018-06-18T10:12:23.994Z,2292
2018-06-18T10:13:25.397Z,2348
2018-06-18T10:14:26.827Z,3140
2018-06-18T10:15:28.186Z,3800
2018-06-18T10:16:29.591Z,4920
2018-06-18T10:17:30.984Z,5212
2018-06-18T10:18:32.373Z,4508
2018-06-18T10:19:33.769Z,4600
2018-06-18T10:20:35.178Z,4364
2018-06-18T10:21:36.576Z,5172
2018-06-18T10:22:37.977Z,5612
2018-06-18T10:23:39.371Z,4908
2018-06-18T10:24:40.765Z,4108
2018-06-18T10:25:42.171Z,3912
2018-06-18T10:26:43.589Z,3776
2018-06-18T10:27:44.989Z,3504
2018-06-18T10:28:46.391Z,3288
2018-06-18T10:29:47.794Z,3184
2018-06-18T10:30:49.202Z,2968
2018-06-18T10:31:50.596Z,2828
2018-06-18T10:32:51.975Z,2612
2018-06-18T10:33:53.384Z,2388
2018-06-18T10:34:54.798Z,2280
2018-06-18T10:35:56.195Z,2032
2018-06-18T10:36:57.588Z,1864
2018-06-18T10:37:58.977Z,1840
2018-06-18T10:39:00.388Z,1964
2018-06-18T10:40:01.780Z,2144
2018-06-18T10:41:03.201Z,2276
2018-06-18T10:42:04.611Z,2444
2018-06-18T10:43:05.995Z,2632
2018-06-18T10:44:07.403Z,2788
2018-06-18T10:45:08.796Z,3204
2018-06-18T10:46:10.184Z,4052
2018-06-18T10:47:11.594Z,4900
2018-06-18T10:48:12.981Z,5052
2018-06-18T10:49:14.377Z,5000
2018-06-18T10:50:15.767Z,5636
2018-06-18T10:51:17.165Z,6116
2018-06-18T10:52:18.565Z,5732
2018-06-18T10:53:19.965Z,4864
2018-06-18T10:54:21.375Z,4368
2018-06-18T10:55:22.784Z,3620
2018-06-18T10:56:24.186Z,3308
2018-06-18T10:57:25.577Z,3244
2018-06-18T10:58:26.966Z,3588
2018-06-18T10:59:28.361Z,3620
2018-06-18T11:00:29.755Z,3692
2018-06-18T11:01:31.145Z,3676
2018-06-18T11:02:32.543Z,3592
2018-06-18T11:03:33.953Z,4232
2018-06-18T11:04:35.352Z,4920
2018-06-18T11:05:36.741Z,5756
2018-06-18T11:06:38.138Z,6104
2018-06-18T11:07:39.534Z,5948
2018-06-18T11:08:40.935Z,5392
2018-06-18T11:09:42.338Z,4452
2018-06-18T11:10:43.744Z,3916
2018-06-18T11:11:45.151Z,3840
2018-06-18T11:12:46.552Z,4688
2018-06-18T11:13:48.716Z,4504
2018-06-18T11:14:50.111Z,2724
2018-06-18T11:15:51.590Z,3108
2018-06-18T11:16:53.217Z,4604
2018-06-18T11:17:54.304Z,5156
2018-06-18T11:18:55.700Z,3560
2018-06-18T11:19:57.100Z,3664
2018-06-18T11:20:58.518Z,4800
2018-06-18T11:21:59.927Z,4812
2018-06-18T11:23:01.325Z,4196
2018-06-18T11:24:03.659Z,4924
2018-06-18T11:25:05.061Z,5380
2018-06-18T11:26:06.462Z,6348
2018-06-18T11:27:07.929Z,8400
2018-06-18T11:28:09.244Z,7848
2018-06-18T11:29:10.623Z,9772
2018-06-18T11:30:12.018Z,7280
2018-06-18T11:31:13.454Z,7332
2018-06-18T11:32:14.821Z,8852
2018-06-18T11:33:16.193Z,7660
2018-06-18T11:34:17.603Z,5592
2018-06-18T11:35:18.996Z,5056
2018-06-18T11:36:20.418Z,6752
2018-06-18T11:37:21.804Z,8176
2018-06-18T11:38:23.204Z,9136
2018-06-18T11:39:24.661Z,9132
2018-06-18T11:40:26.020Z,7712
2018-06-18T11:41:27.420Z,4368
2018-06-18T11:42:28.808Z,7004
2018-06-18T11:43:30.288Z,6540
2018-06-18T11:44:31.616Z,9040
2018-06-18T11:45:33.007Z,11400
2018-06-18T11:46:34.408Z,8592
2018-06-18T11:47:35.800Z,3604
2018-06-18T11:48:37.205Z,61472
2018-06-18T11:49:38.595Z,48608
2018-06-18T11:50:40.003Z,10696
2018-06-18T11:51:41.392Z,23008
2018-06-18T11:52:42.875Z,17632
2018-06-18T11:53:44.195Z,109184
2018-06-18T11:54:45.595Z,79584
2018-06-18T11:55:47.041Z,116096
2018-06-18T11:56:48.401Z,112192
2018-06-18T11:57:49.801Z,4948
2018-06-18T11:58:51.201Z,2916
2018-06-18T11:59:52.599Z,2224
2018-06-18T12:00:54.010Z,2308
2018-06-18T12:01:55.436Z,10408
2018-06-18T12:02:56.800Z,2044
2018-06-18T12:03:58.237Z,2012
2018-06-18T12:04:59.611Z,2256
2018-06-18T12:06:01.013Z,4160
2018-06-18T12:07:02.469Z,5152
2018-06-18T12:08:03.814Z,27616
2018-06-18T12:09:05.217Z,4260
2018-06-18T12:10:06.625Z,4248
2018-06-18T12:11:08.030Z,5648
2018-06-18T12:12:09.437Z,4816
2018-06-18T12:13:10.833Z,5112
2018-06-18T12:14:12.232Z,3664
2018-06-18T12:15:13.635Z,3444
2018-06-18T12:16:15.026Z,3308
2018-06-18T12:17:16.420Z,3440
2018-06-18T12:18:17.835Z,3588
2018-06-18T12:19:19.231Z,4028
2018-06-18T12:20:20.633Z,3576
2018-06-18T12:21:22.035Z,3912
2018-06-18T12:22:23.438Z,4388
2018-06-18T12:23:24.829Z,5712
2018-06-18T12:24:26.230Z,5888
2018-06-18T12:25:27.641Z,12600
2018-06-18T12:26:29.038Z,10744
2018-06-18T12:27:30.433Z,11588
2018-06-18T12:28:31.822Z,16608
2018-06-18T12:29:33.222Z,5844
2018-06-18T12:30:34.612Z,4312
2018-06-18T12:31:36.014Z,3572
2018-06-18T12:32:37.418Z,4128
2018-06-18T12:33:38.821Z,4176
2018-06-18T12:34:40.220Z,24672
2018-06-18T12:35:41.614Z,6296
2018-06-18T12:36:43.024Z,3752
2018-06-18T12:37:44.484Z,3804
2018-06-18T12:38:45.902Z,3244
2018-06-18T12:39:47.310Z,3048
2018-06-18T12:40:48.726Z,3452
2018-06-18T12:41:50.123Z,3904
2018-06-18T12:42:51.523Z,2840
2018-06-18T12:43:52.959Z,2796
2018-06-18T12:44:54.346Z,2840
2018-06-18T12:45:55.737Z,2952
2018-06-18T12:46:57.212Z,3112
2018-06-18T12:47:58.498Z,2868
2018-06-18T12:48:59.907Z,4112
2018-06-18T12:50:01.299Z,5696
2018-06-18T12:51:02.706Z,5224
2018-06-18T12:52:04.116Z,4508
2018-06-18T12:53:05.517Z,4616
2018-06-18T12:54:06.924Z,4300
2018-06-18T12:55:08.316Z,3740
2018-06-18T12:56:09.731Z,3352
2018-06-18T12:57:12.020Z,3204
2018-06-18T12:58:13.430Z,4048
2018-06-18T12:59:14.837Z,4520
2018-06-18T13:00:16.232Z,4556
2018-06-18T13:01:17.647Z,5004
2018-06-18T13:02:19.030Z,5084
2018-06-18T13:03:20.430Z,5060
2018-06-18T13:04:21.847Z,4272
2018-06-18T13:05:23.255Z,4564
2018-06-18T13:06:24.645Z,4700
2018-06-18T13:07:26.045Z,4428
2018-06-18T13:08:27.446Z,4732
2018-06-18T13:09:28.845Z,4564
2018-06-18T13:10:30.248Z,3896
2018-06-18T13:11:31.650Z,3468
2018-06-18T13:12:33.046Z,2196
2018-06-18T13:13:34.448Z,1944
2018-06-18T13:14:35.858Z,1824
2018-06-18T13:15:37.255Z,1664
2018-06-18T13:16:38.651Z,1644
2018-06-18T13:17:40.051Z,1652
2018-06-18T13:18:41.449Z,1504
2018-06-18T13:19:42.850Z,1584
2018-06-18T13:20:44.247Z,1532
2018-06-18T13:21:45.654Z,1388
2018-06-18T13:22:47.066Z,1596
2018-06-18T13:23:49.186Z,1428
2018-06-18T13:24:50.582Z,1548
2018-06-18T13:25:52.881Z,1612
2018-06-18T13:26:54.276Z,1996
2018-06-18T13:27:55.668Z,2336
2018-06-18T13:28:57.056Z,2620
2018-06-18T13:29:58.454Z,3000
2018-06-18T13:30:59.857Z,3216
2018-06-18T13:32:01.248Z,2228
2018-06-18T13:33:02.654Z,2880
2018-06-18T13:34:04.055Z,3328
2018-06-18T13:35:05.488Z,3440
2018-06-18T13:36:06.856Z,3556
2018-06-18T13:37:08.265Z,3656
2018-06-18T13:38:09.611Z,3868
2018-06-18T13:39:11.017Z,3976
2018-06-18T13:40:12.415Z,3844
2018-06-18T13:41:13.801Z,3680
2018-06-18T13:42:15.207Z,3708
2018-06-18T13:43:16.601Z,3636
2018-06-18T13:44:18.001Z,3620
2018-06-18T13:45:19.417Z,3540
2018-06-18T13:46:20.816Z,3580
2018-06-18T13:47:22.228Z,3496
2018-06-18T13:48:23.638Z,3484
2018-06-18T13:49:25.040Z,3496
2018-06-18T13:50:26.452Z,3300
2018-06-18T13:51:27.838Z,3052
2018-06-18T13:52:29.256Z,3120
2018-06-18T13:53:30.637Z,3048
2018-06-18T13:54:32.041Z,3104
2018-06-18T13:55:33.473Z,2864
2018-06-18T13:56:34.871Z,2660
2018-06-18T13:57:36.256Z,2492
2018-06-18T13:58:37.718Z,2508
2018-06-18T13:59:39.071Z,2260
2018-06-18T14:00:40.470Z,2452
2018-06-18T14:01:41.885Z,2484
2018-06-18T14:02:43.278Z,2444
2018-06-18T14:03:44.667Z,2700
2018-06-18T14:04:46.066Z,3068
2018-06-18T14:05:47.466Z,3028
2018-06-18T14:06:48.872Z,2944
2018-06-18T14:07:50.272Z,3000
2018-06-18T14:08:51.670Z,2956
2018-06-18T14:09:53.066Z,2924
2018-06-18T14:10:54.480Z,2980
2018-06-18T14:11:55.864Z,2916
2018-06-18T14:12:57.283Z,2996
2018-06-18T14:13:58.701Z,3088
2018-06-18T14:15:00.101Z,3036
2018-06-18T14:16:01.483Z,2960
2018-06-18T14:17:02.899Z,2920
2018-06-18T14:18:04.284Z,2712
2018-06-18T14:19:05.684Z,2508
2018-06-18T14:20:07.094Z,2184
2018-06-18T14:21:08.483Z,2204
2018-06-18T14:22:09.879Z,2108
2018-06-18T14:23:11.275Z,2156
2018-06-18T14:24:12.674Z,2064
2018-06-18T14:25:14.119Z,2032
2018-06-18T14:26:15.462Z,2116
2018-06-18T14:27:16.877Z,1976
2018-06-18T14:28:18.270Z,1956
2018-06-18T14:29:19.684Z,1772
2018-06-18T14:30:21.081Z,1648
2018-06-18T14:31:22.480Z,1644
2018-06-18T14:32:23.896Z,1576
2018-06-18T14:33:25.272Z,1460
2018-06-18T14:34:26.676Z,1496
2018-06-18T14:35:28.081Z,1620
2018-06-18T14:36:29.544Z,1676
2018-06-18T14:37:30.857Z,1652
2018-06-18T14:38:32.243Z,1728
2018-06-18T14:39:33.645Z,1724
2018-06-18T14:40:35.043Z,1692
2018-06-18T14:41:36.971Z,1660
2018-06-18T14:42:38.413Z,1620
2018-06-18T14:43:39.732Z,1656
2018-06-18T14:44:41.124Z,1784
2018-06-18T14:45:42.551Z,1860
2018-06-18T14:46:43.921Z,1936
2018-06-18T14:47:45.319Z,2072
2018-06-18T14:48:46.713Z,2120
2018-06-18T14:49:48.112Z,2256
2018-06-18T14:50:49.514Z,2180
2018-06-18T14:51:50.923Z,1984
2018-06-18T14:52:53.015Z,2012
2018-06-18T14:53:53.668Z,1992
2018-06-18T14:54:55.067Z,2072
2018-06-18T14:55:56.504Z,1996
2018-06-18T14:56:57.862Z,1972
2018-06-18T14:57:59.249Z,1868
2018-06-18T14:59:00.644Z,1984
2018-06-18T15:00:02.034Z,1844
2018-06-18T15:01:03.429Z,1852
2018-06-18T15:02:05.538Z,1772
2018-06-18T15:03:06.156Z,1760
2018-06-18T15:04:07.646Z,1620
2018-06-18T15:05:08.967Z,1504
2018-06-18T15:06:10.349Z,1476
2018-06-18T15:07:11.741Z,1420
2018-06-18T15:08:13.157Z,1332
2018-06-18T15:09:14.634Z,1208
2018-06-18T15:10:16.005Z,1132
2018-06-18T15:11:17.380Z,1112
2018-06-18T15:12:18.777Z,980
2018-06-18T15:13:20.175Z,944
2018-06-18T15:14:21.581Z,924
2018-06-18T15:15:23.029Z,948
2018-06-18T15:16:25.012Z,936
2018-06-18T15:17:26.403Z,908
2018-06-18T15:18:27.793Z,1048
2018-06-18T15:19:29.198Z,1012
2018-06-18T15:20:30.608Z,1216
2018-06-18T15:21:32.045Z,1464
2018-06-18T15:22:33.450Z,1524
2018-06-18T15:23:34.842Z,1516
2018-06-18T15:24:36.239Z,1512
2018-06-18T15:25:37.657Z,1576
2018-06-18T15:26:39.066Z,1640
2018-06-18T15:27:40.450Z,1728
2018-06-18T15:28:41.846Z,1684
2018-06-18T15:29:43.257Z,1752
2018-06-18T15:30:44.661Z,1792
2018-06-18T15:31:46.050Z,1840
2018-06-18T15:32:47.478Z,1852
2018-06-18T15:33:49.533Z,1916
2018-06-18T15:34:50.233Z,2048
2018-06-18T15:35:51.649Z,2016
2018-06-18T15:36:53.040Z,1992
2018-06-18T15:37:54.445Z,1892
2018-06-18T15:38:55.840Z,1932
2018-06-18T15:39:57.234Z,1820
2018-06-18T15:40:58.649Z,1884
2018-06-18T15:42:00.045Z,1956
2018-06-18T15:43:01.440Z,2116
2018-06-18T15:44:02.949Z,2128
2018-06-18T15:45:04.244Z,2084
2018-06-18T15:46:05.648Z,2028
2018-06-18T15:47:07.046Z,1980
2018-06-18T15:48:08.441Z,2012
2018-06-18T15:49:09.840Z,2032
2018-06-18T15:50:11.254Z,2016
2018-06-18T15:51:12.654Z,2032
2018-06-18T15:52:14.063Z,1944
2018-06-18T15:53:15.456Z,1932
2018-06-18T15:54:16.869Z,2044
2018-06-18T15:55:18.260Z,1952
2018-06-18T15:56:19.737Z,1892
2018-06-18T15:57:21.307Z,1768
2018-06-18T15:58:23.151Z,1632
2018-06-18T15:59:24.546Z,1740
2018-06-18T16:00:26.068Z,1728
2018-06-18T16:01:27.525Z,1776
2018-06-18T16:02:29.043Z,1780
2018-06-18T16:03:30.353Z,1724
2018-06-18T16:04:31.799Z,1704
2018-06-18T16:05:33.244Z,1676
2018-06-18T16:06:34.667Z,1728
2018-06-18T16:07:36.121Z,1836
2018-06-18T16:08:37.555Z,1752
2018-06-18T16:09:39.019Z,1596
2018-06-18T16:10:40.502Z,1492
2018-06-18T16:11:41.968Z,1508
2018-06-18T16:12:43.407Z,1576
2018-06-18T16:13:45.556Z,1576
2018-06-18T16:14:46.308Z,1552
2018-06-18T16:15:47.836Z,1408
2018-06-18T16:16:49.299Z,1504
2018-06-18T16:17:50.758Z,1400
2018-06-18T16:18:52.198Z,1456
2018-06-18T16:19:53.617Z,1572
2018-06-18T16:20:55.143Z,1572
2018-06-18T16:21:56.604Z,1440
2018-06-18T16:22:58.057Z,1448
2018-06-18T16:23:59.566Z,1344
2018-06-18T16:25:01.110Z,1316
2018-06-18T16:26:02.522Z,1376
2018-06-18T16:27:04.002Z,1408
2018-06-18T16:28:05.502Z,1340
2018-06-18T16:29:07.589Z,1276
2018-06-18T16:30:08.434Z,1024
2018-06-18T16:31:09.886Z,988
2018-06-18T16:32:11.857Z,1000
2018-06-18T16:33:13.268Z,1064
2018-06-18T16:34:14.747Z,1116
2018-06-18T16:35:16.203Z,1052
2018-06-18T16:36:17.675Z,1012
2018-06-18T16:37:19.182Z,900
2018-06-18T16:38:20.668Z,824
2018-06-18T16:39:22.145Z,824
2018-06-18T16:40:23.608Z,820
2018-06-18T16:41:25.115Z,848
2018-06-18T16:42:26.465Z,940
2018-06-18T16:43:27.864Z,1024
2018-06-18T16:44:29.299Z,992
2018-06-18T16:45:30.847Z,1000
2018-06-18T16:46:32.966Z,996
2018-06-18T16:47:34.440Z,1052
2018-06-18T16:48:35.844Z,1084
2018-06-18T16:49:37.348Z,1068
2018-06-18T16:50:38.718Z,1148
2018-06-18T16:51:40.166Z,1204
2018-06-18T16:52:41.598Z,1224
2018-06-18T16:53:43.036Z,1212
2018-06-18T16:54:44.469Z,1208
2018-06-18T16:55:45.914Z,1184
2018-06-18T16:56:47.385Z,1172
2018-06-18T16:57:48.784Z,1176
2018-06-18T16:58:50.182Z,1156
2018-06-18T16:59:51.569Z,1092
2018-06-18T17:00:52.969Z,1092
2018-06-18T17:01:54.376Z,1080
2018-06-18T17:02:55.788Z,1104
2018-06-18T17:03:58.151Z,1104
2018-06-18T17:04:59.556Z,1060
2018-06-18T17:06:00.963Z,1048
2018-06-18T17:07:02.347Z,1036
2018-06-18T17:08:03.746Z,1040
2018-06-18T17:09:05.195Z,1060
2018-06-18T17:10:06.543Z,1056
2018-06-18T17:11:07.911Z,1052
2018-06-18T17:12:09.295Z,1044
2018-06-18T17:13:10.757Z,1032
2018-06-18T17:14:12.172Z,1008
2018-06-18T17:15:13.567Z,984
2018-06-18T17:16:14.957Z,976
2018-06-18T17:17:16.348Z,956
2018-06-18T17:18:17.755Z,980
2018-06-18T17:19:19.151Z,972
2018-06-18T17:20:20.545Z,940
2018-06-18T17:21:21.895Z,952
2018-06-18T17:22:23.302Z,952
2018-06-18T17:23:24.740Z,948
2018-06-18T17:24:26.047Z,932
2018-06-18T17:25:27.464Z,928
2018-06-18T17:26:28.830Z,1000
2018-06-18T17:27:30.225Z,1008
2018-06-18T17:28:31.624Z,952
2018-06-18T17:29:33.024Z,1000
2018-06-18T17:30:34.424Z,1028
2018-06-18T17:31:35.820Z,1008
2018-06-18T17:32:37.228Z,928
2018-06-18T17:33:38.618Z,1064
2018-06-18T17:34:40.485Z,1096
2018-06-18T17:35:42.116Z,900
2018-06-18T17:36:45.931Z,960
2018-06-18T17:37:47.336Z,868
2018-06-18T17:38:48.743Z,724
2018-06-18T17:39:50.162Z,708
2018-06-18T17:40:51.552Z,648
2018-06-18T17:41:52.938Z,692
2018-06-18T17:42:54.354Z,656
2018-06-18T17:43:55.752Z,680
2018-06-18T17:44:57.141Z,556
2018-06-18T17:45:58.549Z,552
2018-06-18T17:46:59.959Z,536
2018-06-18T17:48:01.388Z,500
2018-06-18T17:49:02.720Z,480
2018-06-18T17:50:04.109Z,468
2018-06-18T17:51:05.510Z,464
2018-06-18T17:52:06.910Z,460
2018-06-18T17:53:08.298Z,456
2018-06-18T17:54:09.653Z,452
2018-06-18T17:55:11.068Z,452
2018-06-18T17:56:12.479Z,448
2018-06-18T17:57:13.880Z,440
2018-06-18T17:58:15.280Z,440
2018-06-18T17:59:16.681Z,436
2018-06-18T18:00:18.079Z,432
2018-06-18T18:01:19.480Z,364
2018-06-18T18:02:20.882Z,400
2018-06-18T18:03:22.242Z,396
2018-06-18T18:04:23.602Z,392
2018-06-18T18:05:24.992Z,392
2018-06-18T18:06:26.397Z,396
2018-06-18T18:07:27.798Z,388
2018-06-18T18:08:29.160Z,380
2018-06-18T18:09:30.570Z,376
2018-06-18T18:10:32.010Z,372
2018-06-18T18:11:33.371Z,376
2018-06-18T18:12:34.778Z,364
2018-06-18T18:13:36.256Z,364
2018-06-18T18:14:37.535Z,348
2018-06-18T18:15:38.929Z,344
2018-06-18T18:16:40.330Z,336
2018-06-18T18:17:41.737Z,332
2018-06-18T18:18:43.145Z,328
2018-06-18T18:19:44.561Z,320
2018-06-18T18:20:45.950Z,312
2018-06-18T18:21:47.351Z,308
2018-06-18T18:22:48.700Z,300
2018-06-18T18:23:50.094Z,300
2018-06-18T18:24:51.480Z,292
2018-06-18T18:25:52.871Z,292
2018-06-18T18:26:54.276Z,280
2018-06-18T18:27:55.689Z,252
2018-06-18T18:28:57.085Z,252
2018-06-18T18:29:58.497Z,224
2018-06-18T18:30:59.923Z,280
2018-06-18T18:32:01.318Z,284
2018-06-18T18:33:02.735Z,280
2018-06-18T18:34:05.036Z,256
2018-06-18T18:35:06.377Z,284
2018-06-18T18:36:07.743Z,284
2018-06-18T18:37:09.150Z,244
2018-06-18T18:38:10.554Z,240
2018-06-18T18:39:11.946Z,244
2018-06-18T18:40:14.319Z,244
2018-06-18T18:41:15.735Z,236
2018-06-18T18:42:17.094Z,224
2018-06-18T18:43:18.510Z,208
2018-06-18T18:44:19.925Z,200
2018-06-18T18:45:21.300Z,184
2018-06-18T18:46:22.688Z,180
2018-06-18T18:47:24.074Z,176
2018-06-18T18:48:25.491Z,168
2018-06-18T18:49:26.891Z,168
2018-06-18T18:50:28.296Z,164
2018-06-18T18:51:29.702Z,160
2018-06-18T18:52:31.139Z,148
2018-06-18T18:53:32.463Z,144
2018-06-18T18:54:33.859Z,148
2018-06-18T18:55:35.255Z,144
2018-06-18T18:56:36.593Z,136
2018-06-18T18:57:38.063Z,136
2018-06-18T18:58:39.480Z,128
2018-06-18T18:59:40.910Z,128
2018-06-18T19:00:42.252Z,124
2018-06-18T19:01:43.660Z,124
2018-06-18T19:02:45.088Z,120
2018-06-18T19:03:46.471Z,112
2018-06-18T19:04:47.876Z,112
2018-06-18T19:05:49.287Z,128
2018-06-18T19:06:50.732Z,120
2018-06-18T19:07:52.140Z,120
2018-06-18T19:08:53.531Z,116
2018-06-18T19:09:54.935Z,112
2018-06-18T19:10:56.332Z,108
2018-06-18T19:11:57.812Z,104
2018-06-18T19:12:59.164Z,100
2018-06-18T19:14:00.516Z,100
2018-06-18T19:15:01.943Z,96
2018-06-18T19:16:03.299Z,92
2018-06-18T19:17:04.693Z,96
2018-06-18T19:18:06.089Z,92
2018-06-18T19:19:07.485Z,88
2018-06-18T19:20:08.887Z,84
2018-06-18T19:21:10.285Z,84
2018-06-18T19:22:11.680Z,76
2018-06-18T19:23:13.093Z,76
2018-06-18T19:24:14.487Z,72
2018-06-18T19:25:15.960Z,68
2018-06-18T19:26:17.239Z,64
2018-06-18T19:27:18.711Z,64
2018-06-18T19:28:20.124Z,56
2018-06-18T19:29:21.471Z,52
2018-06-18T19:30:22.878Z,48
2018-06-18T19:31:24.297Z,44
2018-06-18T19:32:25.677Z,44
2018-06-18T19:33:27.080Z,40
2018-06-18T19:34:28.614Z,40
2018-06-18T19:35:29.978Z,36
2018-06-18T19:36:31.384Z,32
2018-06-18T19:37:32.778Z,28
2018-06-18T19:38:34.171Z,28
2018-06-18T19:39:35.584Z,28
2018-06-18T19:40:36.988Z,24
2018-06-18T19:41:38.417Z,20
2018-06-18T19:42:39.750Z,20
2018-06-18T19:43:41.141Z,20
2018-06-18T19:44:42.505Z,20
2018-06-18T19:45:43.910Z,20
2018-06-18T19:46:45.315Z,16
2018-06-18T19:47:46.697Z,12
2018-06-18T19:48:48.107Z,16
2018-06-18T19:49:49.504Z,16
2018-06-18T19:50:50.912Z,12
2018-06-18T19:51:52.295Z,12
2018-06-18T19:52:53.695Z,8
2018-06-18T19:53:55.089Z,8
2018-06-18T19:54:56.492Z,12
2018-06-18T19:55:57.884Z,8
2018-06-18T19:56:59.266Z,8
2018-06-18T19:58:00.648Z,8
2018-06-18T19:59:02.036Z,4
2018-06-18T20:00:03.430Z,4
2018-06-18T20:01:04.819Z,4
2018-06-18T20:02:06.224Z,4
2018-06-18T20:03:07.612Z,4
2018-06-18T20:04:09.011Z,0
2018-06-18T20:05:11.013Z,4
2018-06-18T20:06:12.441Z,4
2018-06-18T20:07:13.836Z,0
2018-06-18T20:08:15.231Z,4
2018-06-18T20:09:16.619Z,0
2018-06-18T20:10:18.003Z,0
2018-06-18T20:11:19.427Z,0
2018-06-18T20:12:20.837Z,4
2018-06-18T20:13:22.190Z,4
2018-06-18T20:14:23.577Z,0
2018-06-18T20:15:24.977Z,0
2018-06-18T20:16:26.373Z,0
2018-06-18T20:17:27.761Z,0
2018-06-18T20:18:29.164Z,0
2018-06-18T20:19:30.559Z,0
2018-06-18T20:20:31.966Z,0
2018-06-18T20:21:33.355Z,0
2018-06-18T20:22:34.757Z,0
2018-06-18T20:23:36.119Z,0
2018-06-18T20:24:37.527Z,0
2018-06-18T20:25:38.954Z,0
2018-06-18T20:26:40.272Z,0
2018-06-18T20:27:41.685Z,0
2018-06-18T20:28:43.075Z,0
2018-06-18T20:29:44.480Z,0
2018-06-18T20:30:45.859Z,0
2018-06-18T20:31:47.270Z,0
2018-06-18T20:32:48.686Z,0
2018-06-18T20:33:50.058Z,0
2018-06-18T20:34:51.458Z,0
2018-06-18T20:35:52.843Z,0
2018-06-18T20:36:54.240Z,0
2018-06-18T20:37:55.637Z,0
2018-06-18T20:38:57.038Z,0
2018-06-18T20:39:58.425Z,0
2018-06-18T20:40:59.836Z,0
2018-06-18T20:42:01.220Z,0
2018-06-18T20:43:02.611Z,0
2018-06-18T20:44:04.005Z,0
2018-06-18T20:45:05.407Z,0
2018-06-18T20:46:06.798Z,0
2018-06-18T20:47:08.186Z,0
2018-06-18T20:48:09.576Z,0
2018-06-18T20:49:10.967Z,0
2018-06-18T20:50:12.372Z,0
2018-06-18T20:51:13.761Z,0
2018-06-18T20:52:15.156Z,0
2018-06-18T20:53:16.566Z,0
2018-06-18T20:54:17.913Z,0
2018-06-18T20:55:19.311Z,0
2018-06-18T20:56:20.700Z,0
2018-06-18T20:57:22.093Z,0
2018-06-18T20:58:23.488Z,0
2018-06-18T20:59:24.892Z,0
2018-06-18T21:00:26.298Z,0
2018-06-18T21:01:27.697Z,0
2018-06-18T21:02:29.147Z,0
2018-06-18T21:03:30.481Z,0
2018-06-18T21:04:31.872Z,0
2018-06-18T21:05:33.274Z,0
2018-06-18T21:06:34.658Z,0
2018-06-18T21:07:36.045Z,0
2018-06-18T21:08:37.452Z,0
2018-06-18T21:09:38.830Z,0
2018-06-18T21:10:40.221Z,0
2018-06-18T21:11:41.606Z,0
2018-06-18T21:12:43.019Z,0
2018-06-18T21:13:44.401Z,0
2018-06-18T21:14:45.787Z,0
2018-06-18T21:15:47.199Z,0
2018-06-18T21:16:48.591Z,0
2018-06-18T21:17:49.983Z,0
2018-06-18T21:18:51.377Z,0
2018-06-18T21:19:53.000Z,0
2018-06-18T21:20:54.404Z,0
2018-06-18T21:21:55.799Z,0
2018-06-18T21:22:57.183Z,0
2018-06-18T21:23:58.579Z,0
2018-06-18T21:24:59.961Z,0
2018-06-18T21:26:01.375Z,0
2018-06-18T21:27:02.759Z,0
2018-06-18T21:28:04.166Z,0
2018-06-18T21:29:05.537Z,0
2018-06-18T21:30:06.933Z,0
2018-06-18T21:31:08.319Z,0
2018-06-18T21:32:09.712Z,0
2018-06-18T21:33:11.114Z,0
2018-06-18T21:34:12.511Z,0
2018-06-18T21:35:13.893Z,0
2018-06-18T21:36:15.296Z,0
2018-06-18T21:37:16.686Z,0
2018-06-18T21:38:18.096Z,0
2018-06-18T21:39:19.484Z,0
2018-06-18T21:40:20.866Z,0
2018-06-18T21:41:22.265Z,0
2018-06-18T21:42:23.645Z,0
2018-06-18T21:43:25.033Z,0
2018-06-18T21:44:26.409Z,0
2018-06-18T21:45:27.824Z,0
2018-06-18T21:46:29.210Z,0
2018-06-18T21:47:30.597Z,0
2018-06-18T21:48:31.981Z,0
2018-06-18T21:49:33.377Z,0
2018-06-18T21:50:34.751Z,0
2018-06-18T21:51:36.153Z,0
2018-06-18T21:52:37.531Z,0
2018-06-18T21:53:38.941Z,0
2018-06-18T21:54:40.324Z,0
2018-06-18T21:55:41.714Z,0
2018-06-18T21:56:43.293Z,0
2018-06-18T21:57:44.700Z,0
2018-06-18T21:58:46.083Z,0
2018-06-18T21:59:47.476Z,0
2018-06-18T22:00:48.863Z,0
2018-06-18T22:01:50.252Z,0
2018-06-18T22:02:51.655Z,0
2018-06-18T22:03:53.044Z,0
2018-06-18T22:04:54.415Z,0
2018-06-18T22:05:55.798Z,0
2018-06-18T22:06:57.251Z,0
2018-06-18T22:07:58.639Z,0
2018-06-18T22:09:00.026Z,0
2018-06-18T22:10:01.417Z,0
2018-06-18T22:11:02.807Z,0
2018-06-18T22:12:04.189Z,0
2018-06-18T22:13:05.585Z,0
2018-06-18T22:14:06.972Z,0
2018-06-18T22:15:09.061Z,0
2018-06-18T22:16:10.459Z,0
2018-06-18T22:17:11.861Z,0
2018-06-18T22:18:13.237Z,0
2018-06-18T22:19:14.637Z,0
2018-06-18T22:20:16.020Z,0
2018-06-18T22:21:17.411Z,0
2018-06-18T22:22:18.807Z,0
2018-06-18T22:23:20.189Z,0
2018-06-18T22:24:21.572Z,0
2018-06-18T22:25:22.971Z,0
2018-06-18T22:26:24.353Z,0
2018-06-18T22:27:25.734Z,0
2018-06-18T22:28:27.128Z,0
2018-06-18T22:29:28.525Z,0
2018-06-18T22:30:29.908Z,0
2018-06-18T22:31:31.294Z,0
2018-06-18T22:32:32.680Z,0
2018-06-18T22:33:34.080Z,0